Time;durP1;ratioP1;P1;durP2;ratioP2;P2;SDS_P1;SDS_P2;PMS_P1;PMS_P2;Temp;Humidity;BMP_temperature;BMP_pressure;BME280_temperature;BME280_humidity;BME280_pressure;Samples;Min_cycle;Max_cycle;Signal;HPM_P1;HPM_P2
2023/07/15 00:01:34;;;;;;;8.88;3.75;;;;;;;26.30;nan;62385.13;5032651;28;20164;-59
2023/07/15 00:03:59;;;;;;;9.88;3.90;;;;;;;26.36;nan;62397.19;5031994;28;20223;-60
2023/07/15 00:06:25;;;;;;;7.63;4.28;;;;;;;26.07;nan;62290.72;5032160;28;20552;-60
2023/07/15 00:08:52;;;;;;;4.80;3.47;;;;;;;25.98;nan;62359.03;5031873;28;20179;-60
2023/07/15 00:11:24;;;;;;;7.78;4.22;;;;;;;26.28;nan;62477.16;5032497;28;20168;-60
2023/07/15 00:13:50;;;;;;;6.72;3.85;;;;;;;26.31;nan;62689.69;5031920;28;20261;-60
2023/07/15 00:16:15;;;;;;;7.40;3.83;;;;;;;26.08;nan;62482.53;5032199;28;20686;-59
2023/07/15 00:18:41;;;;;;;6.18;3.70;;;;;;;26.14;nan;62448.03;5032526;28;20194;-59
2023/07/15 00:21:18;;;;;;;6.88;3.90;;;;;;;25.88;nan;62418.31;5031892;28;20167;-61
2023/07/15 00:23:44;;;;;;;6.03;3.70;;;;;;;25.91;nan;62337.94;5031917;28;20179;-60
2023/07/15 00:26:10;;;;;;;6.40;4.07;;;;;;;25.88;nan;62431.41;5032440;28;20619;-60
2023/07/15 00:28:36;;;;;;;7.25;4.43;;;;;;;25.98;nan;62330.22;5032213;28;20170;-60
2023/07/15 00:31:01;;;;;;;6.88;4.55;;;;;;;25.89;nan;62361.84;5031893;28;20262;-60
2023/07/15 00:33:28;;;;;;;8.05;4.75;;;;;;;26.19;nan;62393.47;5031752;28;20171;-60
2023/07/15 00:35:53;;;;;;;10.50;5.20;;;;;;;25.98;nan;62450.13;5031578;28;20199;-60
2023/07/15 00:38:19;;;;;;;6.35;4.63;;;;;;;25.86;nan;62290.34;5031802;28;20183;-61
2023/07/15 00:40:47;;;;;;;6.75;4.38;;;;;;;25.88;nan;62423.56;5032144;28;20604;-60
2023/07/15 00:43:50;;;;;;;6.75;4.47;;;;;;;26.14;nan;62452.69;5031848;28;20206;-60
2023/07/15 00:46:18;;;;;;;6.95;3.80;;;;;;;26.13;nan;62441.06;5031765;28;20186;-59
2023/07/15 00:48:49;;;;;;;9.00;4.07;;;;;;;26.11;nan;62345.06;5031949;28;20229;-60
2023/07/15 00:51:15;;;;;;;6.88;4.03;;;;;;;25.98;nan;62353.81;5031680;28;20187;-60
2023/07/15 00:53:40;;;;;;;8.35;3.90;;;;;;;26.07;nan;62395.50;5031713;28;20178;-60
2023/07/15 00:56:06;;;;;;;5.85;3.38;;;;;;;25.77;nan;62429.88;5031645;28;20245;-60
2023/07/15 00:58:31;;;;;;;6.13;3.63;;;;;;;25.78;nan;62465.06;5031801;28;20175;-60
2023/07/15 01:00:57;;;;;;;5.50;3.63;;;;;;;25.95;nan;62377.13;5031228;28;20171;-59
2023/07/15 01:03:22;;;;;;;4.53;3.20;;;;;;;25.28;nan;62441.91;5031368;28;20251;-59
2023/07/15 01:05:47;;;;;;;5.43;3.50;;;;;;;25.64;nan;62307.13;5031773;28;20168;-60
2023/07/15 01:08:13;;;;;;;4.68;2.92;;;;;;;26.00;nan;62424.16;5031561;28;20233;-60
2023/07/15 01:10:38;;;;;;;5.57;3.78;;;;;;;25.89;nan;62644.69;5031830;28;20514;-59
2023/07/15 01:13:09;;;;;;;5.78;3.42;;;;;;;25.73;nan;62268.22;5031517;28;20757;-60
2023/07/15 01:15:34;;;;;;;4.70;3.15;;;;;;;25.80;nan;62323.34;5031260;28;20575;-60
2023/07/15 01:18:00;;;;;;;7.45;3.60;;;;;;;25.59;nan;62411.38;5031376;28;20173;-59
2023/07/15 01:20:25;;;;;;;7.50;3.33;;;;;;;25.72;nan;62287.47;5031577;28;20554;-59
2023/07/15 01:22:51;;;;;;;5.47;3.45;;;;;;;25.66;nan;62327.75;5031197;28;20183;-60
2023/07/15 01:25:17;;;;;;;4.15;3.10;;;;;;;25.46;nan;62373.50;5033944;28;20246;-59
2023/07/15 01:27:42;;;;;;;4.20;3.13;;;;;;;25.39;nan;62269.25;5034914;28;20175;-60
2023/07/15 01:30:09;;;;;;;4.22;3.28;;;;;;;25.58;nan;62651.03;5034903;28;20266;-60
2023/07/15 01:32:35;;;;;;;5.63;3.33;;;;;;;25.43;nan;62398.88;5034882;28;20275;-60
2023/07/15 01:35:00;;;;;;;5.45;3.10;;;;;;;25.58;nan;62287.19;5034811;28;20259;-60
2023/07/15 01:37:26;;;;;;;6.65;2.97;;;;;;;25.28;nan;62203.84;5034809;28;20290;-60
2023/07/15 01:39:51;;;;;;;4.82;3.30;;;;;;;25.28;nan;62235.22;5032531;28;20195;-59
2023/07/15 01:42:17;;;;;;;4.65;2.97;;;;;;;25.49;nan;62285.91;5034323;28;20160;-60
2023/07/15 01:44:42;;;;;;;4.65;3.00;;;;;;;25.54;nan;62285.81;5034053;28;20179;-60
2023/07/15 01:47:07;;;;;;;5.53;2.88;;;;;;;25.24;nan;62367.28;5034077;28;20175;-60
2023/07/15 01:49:33;;;;;;;5.63;3.33;;;;;;;25.21;nan;62345.53;5034506;28;20171;-60
2023/07/15 01:51:58;;;;;;;4.20;2.80;;;;;;;25.19;nan;62251.69;5034322;28;20163;-60
2023/07/15 01:54:24;;;;;;;5.28;2.83;;;;;;;25.08;nan;62286.22;5034170;28;20627;-60
2023/07/15 01:56:50;;;;;;;4.97;3.03;;;;;;;25.16;nan;62195.38;5034145;28;20262;-60
2023/07/15 01:59:16;;;;;;;5.15;2.80;;;;;;;22.41;nan;63819.03;5033895;28;20175;-60
2023/07/15 02:01:41;;;;;;;7.00;3.30;;;;;;;25.29;nan;62328.50;5034155;28;20529;-60
2023/07/15 02:04:06;;;;;;;5.90;3.30;;;;;;;25.12;nan;62373.91;5033993;28;20717;-60
2023/07/15 02:06:32;;;;;;;6.20;3.47;;;;;;;25.28;nan;62287.56;5034103;28;20176;-60
2023/07/15 02:08:58;;;;;;;4.43;3.22;;;;;;;22.31;nan;63828.19;5034253;28;20166;-61
2023/07/15 02:11:23;;;;;;;5.55;3.80;;;;;;;24.97;nan;62221.94;5031965;28;20191;-60
2023/07/15 02:13:50;;;;;;;5.65;3.50;;;;;;;25.20;nan;62315.59;5032011;28;20497;-60
2023/07/15 02:16:16;;;;;;;6.10;3.00;;;;;;;24.94;nan;62223.19;5032070;28;20274;-61
2023/07/15 02:18:41;;;;;;;4.03;2.80;;;;;;;25.05;nan;62206.97;5032658;28;20176;-59
2023/07/15 02:21:07;;;;;;;4.45;2.70;;;;;;;25.20;nan;62252.81;5032545;28;20182;-60
2023/07/15 02:23:33;;;;;;;4.53;2.85;;;;;;;24.99;nan;62343.94;5033318;28;20229;-59
2023/07/15 02:25:59;;;;;;;4.03;2.35;;;;;;;24.90;nan;62213.41;5033712;28;20655;-59
2023/07/15 02:28:26;;;;;;;4.38;2.78;;;;;;;25.21;nan;62258.63;5033929;28;20186;-59
2023/07/15 02:30:52;;;;;;;6.40;3.05;;;;;;;25.01;nan;62236.97;5034119;28;20172;-61
2023/07/15 02:33:17;;;;;;;5.13;2.60;;;;;;;25.18;nan;62334.25;5033568;28;20171;-59
2023/07/15 02:35:43;;;;;;;4.82;2.80;;;;;;;25.15;nan;62338.69;5033291;28;20229;-60
2023/07/15 02:38:09;;;;;;;5.90;2.97;;;;;;;25.22;nan;62273.44;5034052;28;20175;-60
2023/07/15 02:40:34;;;;;;;4.60;2.90;;;;;;;25.24;nan;62330.66;5033645;28;20229;-61
2023/07/15 02:43:00;;;;;;;5.43;3.20;;;;;;;24.71;nan;62335.47;5033544;28;20221;-60
2023/07/15 02:45:26;;;;;;;5.88;3.08;;;;;;;25.07;nan;62201.97;5034110;28;20244;-60
2023/07/15 02:47:52;;;;;;;5.78;3.13;;;;;;;25.31;nan;62315.09;5032612;28;20203;-62
2023/07/15 02:50:18;;;;;;;6.00;3.00;;;;;;;25.16;nan;62266.00;5032577;28;20210;-60
2023/07/15 02:52:45;;;;;;;5.53;3.10;;;;;;;25.28;nan;62214.88;5032681;28;20175;-61
2023/07/15 02:55:11;;;;;;;3.65;2.63;;;;;;;24.61;nan;62316.78;5032611;28;20176;-60
2023/07/15 02:57:36;;;;;;;9.13;3.25;;;;;;;25.29;nan;62310.19;5032432;28;20271;-59
2023/07/15 03:00:11;;;;;;;6.68;3.10;;;;;;;25.06;nan;62215.97;5032694;28;20207;-60
2023/07/15 03:02:37;;;;;;;4.35;2.78;;;;;;;25.10;nan;62267.59;5032855;28;20273;-60
2023/07/15 03:05:02;;;;;;;4.55;3.00;;;;;;;25.28;nan;62565.44;5033011;28;20559;-61
2023/07/15 03:07:28;;;;;;;5.00;2.85;;;;;;;25.28;nan;62377.06;5032880;28;20167;-60
2023/07/15 03:09:54;;;;;;;6.13;3.05;;;;;;;25.29;nan;62335.78;5033083;28;20178;-60
2023/07/15 03:12:19;;;;;;;7.93;2.90;;;;;;;25.36;nan;62258.00;5032702;28;20179;-60
2023/07/15 03:14:45;;;;;;;5.13;2.78;;;;;;;25.21;nan;62350.19;5032368;28;20575;-60
2023/07/15 03:17:10;;;;;;;4.25;2.80;;;;;;;25.21;nan;62352.81;5031372;28;20195;-60
2023/07/15 03:19:37;;;;;;;6.70;3.00;;;;;;;25.28;nan;62322.13;5032467;28;20214;-61
2023/07/15 03:22:03;;;;;;;5.78;3.40;;;;;;;25.39;nan;62313.16;5032814;28;20274;-60
2023/07/15 03:24:30;;;;;;;4.80;2.97;;;;;;;25.53;nan;62276.81;5032498;28;20213;-60
2023/07/15 03:26:55;;;;;;;8.20;3.40;;;;;;;25.37;nan;62382.13;5031946;28;20162;-60
2023/07/15 03:29:22;;;;;;;5.22;2.95;;;;;;;25.51;nan;62387.06;5031902;28;20553;-61
2023/07/15 03:31:48;;;;;;;7.07;2.95;;;;;;;25.69;nan;62310.22;5032833;28;20167;-59
2023/07/15 03:34:13;;;;;;;4.07;2.90;;;;;;;25.51;nan;62390.25;5032201;28;20669;-61
2023/07/15 03:36:39;;;;;;;5.65;2.95;;;;;;;25.78;nan;62567.19;5031687;28;20195;-59
2023/07/15 03:39:05;;;;;;;3.90;2.88;;;;;;;25.65;nan;62308.28;5030563;28;20210;-60
2023/07/15 03:41:31;;;;;;;5.13;2.75;;;;;;;25.75;nan;62309.78;5032459;28;20175;-59
2023/07/15 03:43:56;;;;;;;5.30;3.10;;;;;;;25.73;nan;62331.06;5032718;28;20590;-60
2023/07/15 03:46:23;;;;;;;6.85;2.85;;;;;;;25.85;nan;62373.56;5032361;28;20688;-60
2023/07/15 03:48:48;;;;;;;5.18;2.97;;;;;;;23.18;nan;63099.28;5031225;28;20258;-60
2023/07/15 03:51:14;;;;;;;6.40;3.13;;;;;;;26.31;nan;62496.31;5032146;28;20176;-60
2023/07/15 03:53:39;;;;;;;3.95;2.67;;;;;;;26.44;nan;62420.91;5031787;28;20183;-61
2023/07/15 03:56:05;;;;;;;6.03;3.13;;;;;;;26.58;nan;62482.06;5031692;28;20755;-61
2023/07/15 03:58:30;;;;;;;3.78;2.38;;;;;;;26.74;nan;62657.13;5031189;28;20175;-60
2023/07/15 04:00:55;;;;;;;4.45;2.78;;;;;;;26.47;nan;62555.41;5031526;28;20190;-60
2023/07/15 04:03:21;;;;;;;6.28;2.88;;;;;;;27.13;nan;62536.53;5032290;28;20226;-60
2023/07/15 04:05:46;;;;;;;4.05;2.65;;;;;;;27.55;nan;62589.28;5032187;28;20171;-61
2023/07/15 04:08:12;;;;;;;3.47;2.70;;;;;;;27.40;nan;62637.72;5031720;28;20201;-60
2023/07/15 04:10:37;;;;;;;3.95;2.70;;;;;;;27.36;nan;62572.19;5031766;28;20646;-60
2023/07/15 04:13:03;;;;;;;6.90;2.92;;;;;;;27.23;nan;62542.72;5032033;28;20226;-60
2023/07/15 04:15:32;;;;;;;7.68;2.83;;;;;;;27.10;nan;62651.16;5030395;28;20179;-61
2023/07/15 04:17:57;;;;;;;7.40;2.97;;;;;;;27.31;nan;62668.84;5031965;28;20611;-60
2023/07/15 04:20:23;;;;;;;7.47;2.70;;;;;;;28.05;nan;62776.75;5031433;28;20178;-61
2023/07/15 04:22:48;;;;;;;4.78;2.60;;;;;;;28.05;nan;62763.63;5031595;28;20253;-61
2023/07/15 04:25:14;;;;;;;5.63;2.72;;;;;;;28.77;nan;62790.44;5031613;28;20175;-60
2023/07/15 04:27:40;;;;;;;4.18;2.70;;;;;;;29.92;nan;62899.06;5031374;28;20632;-60
2023/07/15 04:30:08;;;;;;;6.38;2.50;;;;;;;29.85;nan;62910.03;4708632;28;20286;-60
2023/07/15 04:32:33;;;;;;;4.32;2.70;;;;;;;26.88;nan;62536.78;5031590;28;20175;-59
2023/07/15 04:35:01;;;;;;;4.40;2.65;;;;;;;29.59;nan;63001.38;5031584;28;20175;-60
2023/07/15 04:37:27;;;;;;;7.65;2.80;;;;;;;30.02;nan;63008.66;5031702;28;20585;-60
2023/07/15 04:39:52;;;;;;;4.72;2.58;;;;;;;28.99;nan;62901.97;5031138;28;20171;-59
2023/07/15 04:42:17;;;;;;;4.18;2.47;;;;;;;29.03;nan;62780.22;5031284;28;20171;-60
2023/07/15 04:44:43;;;;;;;4.05;2.70;;;;;;;29.07;nan;62884.25;5030696;28;20174;-60
2023/07/15 04:47:08;;;;;;;2.88;2.42;;;;;;;29.72;nan;62984.69;5031749;28;20635;-60
2023/07/15 04:49:35;;;;;;;4.05;2.60;;;;;;;29.23;nan;62905.25;5031795;28;20174;-60
2023/07/15 04:52:00;;;;;;;5.00;2.97;;;;;;;28.76;nan;62780.84;5031106;28;20174;-61
2023/07/15 04:54:25;;;;;;;3.45;2.60;;;;;;;28.46;nan;62728.56;5031511;28;20164;-60
2023/07/15 04:56:51;;;;;;;5.75;2.92;;;;;;;27.96;nan;62753.31;5031994;28;20207;-61
2023/07/15 04:59:16;;;;;;;4.28;3.05;;;;;;;28.21;nan;62944.41;5032823;28;20635;-60
2023/07/15 05:01:42;;;;;;;5.10;2.60;;;;;;;28.02;nan;62960.47;5035759;28;20167;-60
2023/07/15 05:04:07;;;;;;;4.53;2.60;;;;;;;;;;5035093;28;20310;-58
2023/07/15 05:06:32;;;;;;;5.60;2.53;;;;;;;29.81;nan;62958.16;5035384;28;20198;-58
2023/07/15 05:08:58;;;;;;;4.85;2.60;;;;;;;29.49;nan;62882.44;5035152;28;20199;-59
2023/07/15 05:11:26;;;;;;;4.93;2.40;;;;;;;29.30;nan;62984.41;5033761;28;20171;-60
2023/07/15 05:13:52;;;;;;;4.05;2.42;;;;;;;29.13;nan;62909.56;5034833;28;20185;-60
2023/07/15 05:16:17;;;;;;;5.00;2.70;;;;;;;28.92;nan;62731.31;5034791;28;20187;-59
2023/07/15 05:18:43;;;;;;;5.32;3.20;;;;;;;28.89;nan;62716.78;5035077;28;20229;-59
2023/07/15 05:21:09;;;;;;;4.40;2.90;;;;;;;28.76;nan;62899.22;5034934;28;20655;-58
2023/07/15 05:23:34;;;;;;;4.03;2.95;;;;;;;28.44;nan;62782.06;5034281;28;20203;-60
2023/07/15 05:26:01;;;;;;;3.22;2.53;;;;;;;28.42;nan;62760.81;5034825;28;20167;-61
2023/07/15 05:28:32;;;;;;;3.65;2.70;;;;;;;27.68;nan;62601.53;5035001;28;20175;-60
2023/07/15 05:30:59;;;;;;;4.97;2.90;;;;;;;27.56;nan;62550.47;5034475;28;20175;-60
2023/07/15 05:33:24;;;;;;;6.60;2.75;;;;;;;28.04;nan;62736.75;5034679;28;20182;-61
2023/07/15 05:35:50;;;;;;;5.93;3.13;;;;;;;27.98;nan;62672.06;5034696;28;20195;-60
2023/07/15 05:38:15;;;;;;;3.55;2.50;;;;;;;28.47;nan;62711.88;5034354;28;20160;-60
2023/07/15 05:40:41;;;;;;;6.03;2.75;;;;;;;28.96;nan;62827.44;5034424;28;20252;-62
2023/07/15 05:43:07;;;;;;;4.93;2.30;;;;;;;29.30;nan;62890.19;5034382;28;20225;-64
2023/07/15 05:45:33;;;;;;;4.00;2.70;;;;;;;29.34;nan;62900.03;5034076;28;20175;-61
2023/07/15 05:47:58;;;;;;;4.63;2.92;;;;;;;28.98;nan;62754.00;5034102;28;20194;-61
2023/07/15 05:50:23;;;;;;;4.53;2.97;;;;;;;28.71;nan;62823.03;5034007;28;20249;-64
2023/07/15 05:52:49;;;;;;;4.60;2.88;;;;;;;29.09;nan;62921.34;5034168;28;20172;-62
2023/07/15 05:55:14;;;;;;;5.07;3.30;;;;;;;28.52;nan;62728.13;5034365;28;20223;-62
2023/07/15 05:57:40;;;;;;;4.35;2.72;;;;;;;28.72;nan;62711.03;5034207;28;20696;-65
2023/07/15 06:00:08;;;;;;;3.97;2.70;;;;;;;28.92;nan;62783.38;5034058;28;20171;-61
2023/07/15 06:02:34;;;;;;;3.67;2.67;;;;;;;28.97;nan;62841.75;5034013;28;20537;-65
2023/07/15 06:04:59;;;;;;;4.82;2.47;;;;;;;28.90;nan;62800.06;5034169;28;20258;-62
2023/07/15 06:07:25;;;;;;;4.40;2.85;;;;;;;28.75;nan;62761.25;5033534;28;20318;-61
2023/07/15 06:09:52;;;;;;;6.22;2.92;;;;;;;28.46;nan;62712.78;5033118;28;20178;-63
2023/07/15 06:12:17;;;;;;;6.05;3.30;;;;;;;28.14;nan;62757.63;5032492;28;20563;-65
2023/07/15 06:14:42;;;;;;;5.22;3.28;;;;;;;28.71;nan;62793.50;5033759;28;20258;-61
2023/07/15 06:17:08;;;;;;;4.68;2.97;;;;;;;28.62;nan;62743.72;5033673;28;20223;-65
2023/07/15 06:19:34;;;;;;;4.65;2.80;;;;;;;28.53;nan;62878.63;5033749;28;20175;-63
2023/07/15 06:21:59;;;;;;;4.65;3.05;;;;;;;28.58;nan;62710.19;5032217;28;20237;-63
2023/07/15 06:24:25;;;;;;;5.03;3.15;;;;;;;28.36;nan;62682.94;5033839;28;20630;-62
2023/07/15 06:26:50;;;;;;;5.47;2.97;;;;;;;28.19;nan;62742.31;5033348;28;20167;-62
2023/07/15 06:29:16;;;;;;;6.65;3.38;;;;;;;28.48;nan;62707.78;5032401;28;20182;-65
2023/07/15 06:31:41;;;;;;;4.63;3.25;;;;;;;28.51;nan;62745.41;5033963;28;20179;-61
2023/07/15 06:34:06;;;;;;;8.43;3.42;;;;;;;28.82;nan;63050.84;5033362;28;20176;-62
2023/07/15 06:36:32;;;;;;;6.45;2.97;;;;;;;28.72;nan;62805.16;5033303;28;20199;-62
2023/07/15 06:38:57;;;;;;;4.57;3.08;;;;;;;28.35;nan;62695.50;5032860;28;20195;-62
2023/07/15 06:41:23;;;;;;;9.90;3.67;;;;;;;28.39;nan;62749.47;5033139;28;20662;-64
2023/07/15 06:43:48;;;;;;;5.25;3.45;;;;;;;28.45;nan;62758.97;5032672;28;20171;-61
2023/07/15 06:46:13;;;;;;;4.30;3.17;;;;;;;28.59;nan;62751.34;5033248;28;20216;-61
2023/07/15 06:48:39;;;;;;;3.92;2.65;;;;;;;28.79;nan;62769.06;5033328;28;20552;-61
2023/07/15 06:51:04;;;;;;;5.20;3.13;;;;;;;29.04;nan;62896.59;5032888;28;20677;-64
2023/07/15 06:53:30;;;;;;;6.40;2.88;;;;;;;29.39;nan;62913.69;5033260;28;20183;-62
2023/07/15 06:55:55;;;;;;;6.05;3.17;;;;;;;29.81;nan;63032.53;5032985;28;20213;-62
2023/07/15 06:58:20;;;;;;;4.45;2.95;;;;;;;29.48;nan;62899.75;5033105;28;20631;-63
2023/07/15 07:00:46;;;;;;;5.45;3.20;;;;;;;29.41;nan;62955.47;5033054;28;20177;-65
2023/07/15 07:03:11;;;;;;;7.13;3.15;;;;;;;29.39;nan;62928.91;5032809;28;20593;-62
2023/07/15 07:05:36;;;;;;;6.55;3.15;;;;;;;29.53;nan;62921.28;5032218;28;20170;-61
2023/07/15 07:08:02;;;;;;;5.88;3.30;;;;;;;29.61;nan;62893.00;5033018;28;20177;-60
2023/07/15 07:10:28;;;;;;;4.57;3.00;;;;;;;29.36;nan;62897.06;5032755;28;20197;-59
2023/07/15 07:12:53;;;;;;;4.38;2.85;;;;;;;29.55;nan;62888.78;5032639;28;20289;-62
2023/07/15 07:15:18;;;;;;;4.65;3.20;;;;;;;29.71;nan;62851.78;5031153;28;20183;-64
2023/07/15 07:17:44;;;;;;;6.50;3.47;;;;;;;30.12;nan;63025.44;5032611;28;20205;-61
2023/07/15 07:20:10;;;;;;;4.72;3.33;;;;;;;29.97;nan;63055.63;5032486;28;20178;-63
2023/07/15 07:22:35;;;;;;;8.68;3.08;;;;;;;29.93;nan;63045.75;5032612;28;20658;-61
2023/07/15 07:25:01;;;;;;;6.13;3.50;;;;;;;30.01;nan;62977.94;5032402;28;20241;-63
2023/07/15 07:27:26;;;;;;;7.03;3.50;;;;;;;30.05;nan;62895.53;5032106;28;20178;-63
2023/07/15 07:29:52;;;;;;;5.03;3.55;;;;;;;29.66;nan;62983.06;5032139;28;20258;-61
2023/07/15 07:32:18;;;;;;;3.83;2.92;;;;;;;29.94;nan;63046.34;5032370;28;20262;-64
2023/07/15 07:34:44;;;;;;;6.93;3.22;;;;;;;29.55;nan;63105.38;5032157;28;20178;-62
2023/07/15 07:37:09;;;;;;;7.72;3.83;;;;;;;30.26;nan;62967.66;5032199;28;20199;-63
2023/07/15 07:39:34;;;;;;;5.50;3.80;;;;;;;27.08;nan;64515.06;5032250;28;20182;-65
2023/07/15 07:42:00;;;;;;;5.35;3.38;;;;;;;30.16;nan;63055.81;5032100;28;20178;-63
2023/07/15 07:44:25;;;;;;;5.88;3.30;;;;;;;30.17;nan;63094.47;5032319;28;20179;-62
2023/07/15 07:46:51;;;;;;;5.13;3.30;;;;;;;30.34;nan;62986.81;5031983;28;20269;-64
2023/07/15 07:49:17;;;;;;;6.15;3.60;;;;;;;30.99;nan;63184.53;5031691;28;20166;-62
2023/07/15 07:51:42;;;;;;;5.80;3.90;;;;;;;31.44;nan;63259.59;5031716;28;20175;-62
2023/07/15 07:54:07;;;;;;;4.30;3.25;;;;;;;31.73;nan;63266.03;5032231;28;20236;-61
2023/07/15 07:56:33;;;;;;;5.32;3.78;;;;;;;32.18;nan;63343.81;5031840;28;20213;-64
2023/07/15 07:59:00;;;;;;;6.82;4.03;;;;;;;32.36;nan;63555.16;5031443;28;20329;-61
2023/07/15 08:01:27;;;;;;;5.45;3.67;;;;;;;32.35;nan;63406.34;5031725;28;20178;-64
2023/07/15 08:03:55;;;;;;;5.82;4.13;;;;;;;31.92;nan;63293.78;5031341;28;20222;-66
2023/07/15 08:06:21;;;;;;;6.45;4.40;;;;;;;32.61;nan;63390.19;5031275;28;20167;-64
2023/07/15 08:08:47;;;;;;;6.03;4.30;;;;;;;32.68;nan;63499.50;5031581;28;20170;-60
2023/07/15 08:11:12;;;;;;;7.65;4.47;;;;;;;32.64;nan;63423.41;5031824;28;20721;-64
2023/07/15 08:13:37;;;;;;;7.25;4.05;;;;;;;32.64;nan;63407.50;5030345;28;20175;-62
2023/07/15 08:16:03;;;;;;;10.55;4.50;;;;;;;32.71;nan;63467.97;5031266;28;20190;-66
2023/07/15 08:18:28;;;;;;;7.70;4.30;;;;;;;31.82;nan;63234.09;5031644;28;20653;-65
2023/07/15 08:20:54;;;;;;;6.18;4.40;;;;;;;32.04;nan;63330.88;5031750;28;20190;-60
2023/07/15 08:23:20;;;;;;;6.50;4.28;;;;;;;31.23;nan;63277.66;5031475;28;20695;-62
2023/07/15 08:25:45;;;;;;;7.63;4.90;;;;;;;31.53;nan;63209.75;5031537;28;20167;-65
2023/07/15 08:28:11;;;;;;;7.82;4.50;;;;;;;31.96;nan;63403.63;5031597;28;20182;-61
2023/07/15 08:30:36;;;;;;;9.32;5.00;;;;;;;31.49;nan;63352.59;5031090;28;20186;-60
2023/07/15 08:33:06;;;;;;;7.25;4.28;;;;;;;32.15;nan;63282.72;5031686;28;20720;-64
2023/07/15 08:35:32;;;;;;;6.65;4.35;;;;;;;32.37;nan;63395.41;5037330;28;20295;-63
2023/07/15 08:37:57;;;;;;;10.43;5.00;;;;;;;32.18;nan;63328.53;5038108;28;20184;-64
2023/07/15 08:40:25;;;;;;;8.05;5.07;;;;;;;31.76;nan;63269.50;5038147;28;20174;-63
2023/07/15 08:42:51;;;;;;;9.07;5.55;;;;;;;31.67;nan;63349.00;5037744;28;20229;-61
2023/07/15 08:45:17;;;;;;;9.43;5.35;;;;;;;31.24;nan;63192.22;5037794;28;20179;-64
2023/07/15 08:47:44;;;;;;;7.97;4.95;;;;;;;31.03;nan;63255.16;5037907;28;20202;-61
2023/07/15 08:50:15;;;;;;;8.07;5.18;;;;;;;31.37;nan;63156.41;5038129;28;20565;-64
2023/07/15 08:52:42;;;;;;;8.32;5.15;;;;;;;;;;5037131;28;20245;-66
2023/07/15 08:55:08;;;;;;;8.90;5.80;;;;;;;31.19;nan;63167.97;5037973;28;20229;-64
2023/07/15 08:57:33;;;;;;;7.85;4.80;;;;;;;30.93;nan;63067.31;5036488;28;20341;-59
2023/07/15 08:59:59;;;;;;;10.20;5.72;;;;;;;31.04;nan;63172.41;5037620;28;20261;-63
2023/07/15 09:02:24;;;;;;;8.52;5.63;;;;;;;31.17;nan;63254.91;5037577;28;20162;-63
2023/07/15 09:04:50;;;;;;;8.98;5.55;;;;;;;31.20;nan;63243.09;5038094;28;20175;-64
2023/07/15 09:07:16;;;;;;;8.95;5.25;;;;;;;31.51;nan;63247.09;5037956;28;20186;-59
2023/07/15 09:09:41;;;;;;;9.15;5.15;;;;;;;31.97;nan;63190.53;5037584;28;20186;-61
2023/07/15 09:12:10;;;;;;;7.22;4.88;;;;;;;31.79;nan;63376.66;5037682;28;20269;-64
2023/07/15 09:14:43;;;;;;;12.48;5.47;;;;;;;31.87;nan;63351.50;5037613;28;20671;-62
2023/07/15 09:17:14;;;;;;;8.63;5.05;;;;;;;31.91;nan;63255.03;5037690;28;20202;-60
2023/07/15 09:19:40;;;;;;;6.65;4.38;;;;;;;31.85;nan;63295.75;5037846;28;20175;-64
2023/07/15 09:22:07;;;;;;;8.55;4.57;;;;;;;31.95;nan;63304.63;5037765;28;20313;-62
2023/07/15 09:24:35;;;;;;;6.03;4.25;;;;;;;32.22;nan;63356.94;5036191;28;20175;-60
2023/07/15 09:27:01;;;;;;;8.18;4.47;;;;;;;31.66;nan;63322.00;5037376;28;20217;-63
2023/07/15 09:29:27;;;;;;;8.13;4.25;;;;;;;31.37;nan;63196.63;5036865;28;20174;-65
2023/07/15 09:31:53;;;;;;;8.07;4.53;;;;;;;31.46;nan;63209.63;5037773;28;20267;-60
2023/07/15 09:34:18;;;;;;;6.60;4.72;;;;;;;31.54;nan;63226.19;5037676;28;20202;-61
2023/07/15 09:36:44;;;;;;;7.57;4.97;;;;;;;31.58;nan;63240.81;5037410;28;20622;-63
2023/07/15 09:39:14;;;;;;;6.10;4.07;;;;;;;31.95;nan;63358.09;5037748;28;20167;-60
2023/07/15 09:41:41;;;;;;;7.90;4.60;;;;;;;32.00;nan;63387.09;5036683;28;20611;-63
2023/07/15 09:44:07;;;;;;;7.78;4.15;;;;;;;32.00;nan;63225.72;5037126;28;20178;-61
2023/07/15 09:46:32;;;;;;;9.82;4.18;;;;;;;31.94;nan;63263.78;5035378;28;20178;-60
2023/07/15 09:48:58;;;;;;;6.22;4.45;;;;;;;32.08;nan;63327.53;5034203;28;20258;-64
2023/07/15 09:51:25;;;;;;;9.80;4.45;;;;;;;32.39;nan;63574.50;5034246;28;20736;-59
2023/07/15 09:53:55;;;;;;;6.70;4.50;;;;;;;32.71;nan;63520.91;5034491;28;20175;-63
2023/07/15 09:56:24;;;;;;;7.47;4.60;;;;;;;33.14;nan;63459.34;5034116;28;20203;-63
2023/07/15 09:58:53;;;;;;;8.38;4.30;;;;;;;33.40;nan;63533.28;5034419;28;20206;-65
2023/07/15 10:01:47;;;;;;;8.80;4.72;;;;;;;33.24;nan;63574.28;5034177;28;20228;-64
2023/07/15 10:04:30;;;;;;;7.88;4.80;;;;;;;33.33;nan;63562.91;5029205;28;20219;-61
2023/07/15 10:06:55;;;;;;;5.93;4.40;;;;;;;33.24;nan;63534.53;5033990;28;20336;-63
2023/07/15 10:09:23;;;;;;;8.98;4.80;;;;;;;33.76;nan;63601.44;5033636;28;20883;-64
2023/07/15 10:11:51;;;;;;;8.23;4.70;;;;;;;33.70;nan;63583.91;5034120;28;20159;-63
2023/07/15 10:14:18;;;;;;;6.25;4.50;;;;;;;33.79;nan;63612.91;5032490;28;20545;-60
2023/07/15 10:16:44;;;;;;;7.05;4.80;;;;;;;33.22;nan;63701.84;5034092;28;20658;-61
2023/07/15 10:19:43;;;;;;;8.13;5.18;;;;;;;33.82;nan;63666.19;5033874;28;20238;-62
2023/07/15 10:22:10;;;;;;;6.95;5.55;;;;;;;33.62;nan;63590.53;5034017;28;20167;-62
2023/07/15 10:24:36;;;;;;;6.97;4.32;;;;;;;33.49;nan;63649.75;5033377;28;20225;-62
2023/07/15 10:27:05;;;;;;;7.10;4.60;;;;;;;33.37;nan;63524.53;5033821;28;20178;-64
2023/07/15 10:29:30;;;;;;;8.57;4.82;;;;;;;33.54;nan;63595.13;5033893;28;20198;-62
2023/07/15 10:32:25;;;;;;;7.50;4.70;;;;;;;33.30;nan;63602.41;5032632;28;20277;-62
2023/07/15 10:34:52;;;;;;;5.93;4.53;;;;;;;33.20;nan;63463.06;5024802;28;20217;-63
2023/07/15 10:37:19;;;;;;;8.02;5.10;;;;;;;33.27;nan;63551.25;5033528;28;20289;-62
2023/07/15 10:39:46;;;;;;;8.00;5.13;;;;;;;31.91;nan;63414.28;5032808;28;20167;-61
2023/07/15 10:42:16;;;;;;;8.55;4.93;;;;;;;33.60;nan;63620.66;5033178;28;20175;-59
2023/07/15 10:44:50;;;;;;;8.60;4.68;;;;;;;34.15;nan;63685.81;5032989;28;20210;-62
2023/07/15 10:47:16;;;;;;;6.93;5.00;;;;;;;33.92;nan;63678.34;5033230;28;20244;-63
2023/07/15 10:49:43;;;;;;;8.18;5.00;;;;;;;34.00;nan;63722.09;5032675;28;20170;-63
2023/07/15 10:52:09;;;;;;;8.82;5.45;;;;;;;31.63;nan;63341.75;5031848;28;20182;-62
2023/07/15 10:54:39;;;;;;;11.00;5.50;;;;;;;33.91;nan;63631.50;5033057;28;20175;-60
2023/07/15 10:57:12;;;;;;;8.48;5.15;;;;;;;33.91;nan;63753.56;5032587;28;20203;-63
2023/07/15 10:59:45;;;;;;;12.55;5.35;;;;;;;34.20;nan;63712.88;5033228;28;20256;-62
2023/07/15 11:02:11;;;;;;;6.57;4.70;;;;;;;33.62;nan;63540.72;5032657;28;20232;-63
2023/07/15 11:04:39;;;;;;;9.07;5.05;;;;;;;33.42;nan;63482.59;5032932;28;20214;-64
2023/07/15 11:07:10;;;;;;;10.35;5.40;;;;;;;33.25;nan;63641.13;5033130;28;20258;-63
2023/07/15 11:09:40;;;;;;;6.53;4.75;;;;;;;33.62;nan;63577.28;5033085;28;20174;-62
2023/07/15 11:12:07;;;;;;;11.63;6.28;;;;;;;33.94;nan;63672.69;5033087;28;20211;-64
2023/07/15 11:14:33;;;;;;;9.13;5.63;;;;;;;34.14;nan;63735.66;5032603;28;20182;-63
2023/07/15 11:17:00;;;;;;;8.70;5.00;;;;;;;33.88;nan;63601.50;5032843;28;20574;-63
2023/07/15 11:19:28;;;;;;;7.03;4.75;;;;;;;34.11;nan;63697.69;5032691;28;20193;-62
2023/07/15 11:21:55;;;;;;;7.82;4.35;;;;;;;34.03;nan;63632.69;5032621;28;20167;-63
2023/07/15 11:24:22;;;;;;;8.20;4.90;;;;;;;34.27;nan;63739.53;5032452;28;20163;-64
2023/07/15 11:26:48;;;;;;;8.63;5.50;;;;;;;34.43;nan;63702.31;5032676;28;20594;-64
2023/07/15 11:29:18;;;;;;;7.63;4.97;;;;;;;34.38;nan;63776.19;5032776;28;20703;-63
2023/07/15 11:31:49;;;;;;;8.82;4.78;;;;;;;34.42;nan;63735.09;5032257;28;20714;-60
2023/07/15 11:34:15;;;;;;;7.05;4.78;;;;;;;33.73;nan;63619.22;5032347;28;20162;-61
2023/07/15 11:36:41;;;;;;;5.85;4.43;;;;;;;33.85;nan;63678.19;5032361;28;20233;-67
2023/07/15 11:39:07;;;;;;;6.85;4.43;;;;;;;33.75;nan;63589.13;5031783;28;20214;-63
2023/07/15 11:41:33;;;;;;;6.85;4.93;;;;;;;33.61;nan;63648.34;5031351;28;20217;-60
2023/07/15 11:43:59;;;;;;;10.02;4.90;;;;;;;33.91;nan;63669.22;5031727;28;20175;-65
2023/07/15 11:46:25;;;;;;;9.25;4.72;;;;;;;33.57;nan;63558.81;5031377;28;20548;-60
2023/07/15 11:48:51;;;;;;;6.75;4.28;;;;;;;33.55;nan;63813.75;5031239;28;20653;-60